Time,TemperatureF,DewpointF,PressureIn,WindDirection,WindDirectionDegrees,WindSpeedMPH,WindSpeedGustMPH,Humidity,HourlyPrecipIn,Conditions,Clouds,dailyrainin,SoftwareType,DateUTC
2013-02-13 00:05:00,22.4,6.0,30.16,SSW,210,0.0,1.0,50,0.00,,,0.00,weatherlink.com 1.10,2013-02-13 07:05:00,
2013-02-13 00:20:00,21.6,6.0,30.16,South,183,0.0,1.0,51,0.00,,,0.00,weatherlink.com 1.10,2013-02-13 07:20:00,
2013-02-13 00:35:00,21.3,6.0,30.16,SW,214,0.0,1.0,52,0.00,,,0.00,weatherlink.com 1.10,2013-02-13 07:35:00,
2013-02-13 00:50:00,21.6,7.0,30.16,WSW,252,1.0,1.0,53,0.00,,,0.00,weatherlink.com 1.10,2013-02-13 07:50:00,
2013-02-13 01:05:00,21.9,7.0,30.15,WSW,252,0.0,1.0,53,0.00,,,0.00,weatherlink.com 1.10,2013-02-13 08:05:00,
2013-02-13 01:21:00,21.0,7.0,30.15,WSW,252,0.0,0.0,55,0.00,,,0.00,weatherlink.com 1.10,2013-02-13 08:21:00,
2013-02-13 01:36:00,20.9,7.0,30.14,SSW,208,0.0,1.0,55,0.00,,,0.00,weatherlink.com 1.10,2013-02-13 08:36:00,
2013-02-13 01:51:00,21.2,7.0,30.13,SSW,210,0.0,1.0,55,0.00,,,0.00,weatherlink.com 1.10,2013-02-13 08:51:00,
2013-02-13 02:06:00,21.4,7.0,30.13,SSW,207,1.0,4.0,55,0.00,,,0.00,weatherlink.com 1.10,2013-02-13 09:06:00,
2013-02-13 02:21:00,21.3,7.0,30.12,SW,219,0.0,3.0,55,0.00,,,0.00,weatherlink.com 1.10,2013-02-13 09:21:00,
2013-02-13 02:36:00,21.1,8.0,30.10,SW,232,3.0,6.0,56,0.00,,,0.00,weatherlink.com 1.10,2013-02-13 09:36:00,
2013-02-13 02:51:00,21.9,7.0,30.08,SW,217,1.0,5.0,54,0.00,,,0.00,weatherlink.com 1.10,2013-02-13 09:51:00,
2013-02-13 03:06:00,22.1,7.0,30.08,SSW,205,0.0,3.0,52,0.00,,,0.00,weatherlink.com 1.10,2013-02-13 10:06:00,
2013-02-13 03:21:00,21.8,7.0,30.08,SSW,204,0.0,3.0,53,0.00,,,0.00,weatherlink.com 1.10,2013-02-13 10:21:00,
2013-02-13 03:36:00,21.3,7.0,30.07,SSE,148,0.0,2.0,55,0.00,,,0.00,weatherlink.com 1.10,2013-02-13 10:36:00,
2013-02-13 03:51:00,21.5,7.0,30.07,SSW,204,0.0,5.0,54,0.00,,,0.00,weatherlink.com 1.10,2013-02-13 10:51:00,
2013-02-13 04:06:00,21.3,7.0,30.07,SW,236,3.0,4.0,55,0.00,,,0.00,weatherlink.com 1.10,2013-02-13 11:06:00,
2013-02-13 04:21:00,21.3,7.0,30.08,WSW,238,2.0,3.0,55,0.00,,,0.00,weatherlink.com 1.10,2013-02-13 11:21:00,
2013-02-13 04:36:00,20.9,7.0,30.07,South,191,0.0,2.0,56,0.00,,,0.00,weatherlink.com 1.10,2013-02-13 11:36:00,
2013-02-13 04:51:00,20.1,7.0,30.07,SSW,199,0.0,1.0,58,0.00,,,0.00,weatherlink.com 1.10,2013-02-13 11:51:00,
2013-02-13 05:06:00,20.5,8.0,30.07,SW,218,1.0,2.0,58,0.00,,,0.00,weatherlink.com 1.10,2013-02-13 12:06:00,
2013-02-13 05:21:00,20.9,8.0,30.06,SSW,211,0.0,3.0,58,0.00,,,0.00,weatherlink.com 1.10,2013-02-13 12:21:00,
2013-02-13 05:36:00,21.1,8.0,30.07,ESE,122,1.0,2.0,58,0.00,,,0.00,weatherlink.com 1.10,2013-02-13 12:36:00,
2013-02-13 05:51:00,21.2,9.0,30.05,SW,224,1.0,2.0,59,0.00,,,0.00,weatherlink.com 1.10,2013-02-13 12:51:00,
2013-02-13 06:06:00,21.1,9.0,30.05,SSW,194,0.0,2.0,59,0.00,,,0.00,weatherlink.com 1.10,2013-02-13 13:06:00,
2013-02-13 06:21:00,21.5,9.0,30.04,SW,217,0.0,1.0,58,0.00,,,0.00,weatherlink.com 1.10,2013-02-13 13:21:00,
2013-02-13 06:36:00,21.6,9.0,30.04,East,85,0.0,2.0,58,0.00,,,0.00,weatherlink.com 1.10,2013-02-13 13:36:00,
2013-02-13 06:51:00,22.1,9.0,30.03,SE,139,0.0,2.0,57,0.00,,,0.00,weatherlink.com 1.10,2013-02-13 13:51:00,
2013-02-13 07:06:00,23.0,9.0,30.03,SE,130,1.0,4.0,55,0.00,,,0.00,weatherlink.com 1.10,2013-02-13 14:06:00,
2013-02-13 07:21:00,24.0,9.0,30.03,South,183,0.0,1.0,54,0.00,,,0.00,weatherlink.com 1.10,2013-02-13 14:21:00,
2013-02-13 07:36:00,25.9,10.0,30.03,SSW,208,1.0,2.0,51,0.00,,,0.00,weatherlink.com 1.10,2013-02-13 14:36:00,
2013-02-13 07:52:00,28.2,10.0,30.04,SSE,165,0.0,3.0,47,0.00,,,0.00,weatherlink.com 1.10,2013-02-13 14:52:00,
2013-02-13 08:07:00,28.9,10.0,30.04,SSE,158,1.0,3.0,46,0.00,,,0.00,weatherlink.com 1.10,2013-02-13 15:07:00,
2013-02-13 08:22:00,30.5,12.0,30.04,South,172,0.0,2.0,46,0.00,,,0.00,weatherlink.com 1.10,2013-02-13 15:22:00,
2013-02-13 08:37:00,33.1,12.0,30.03,South,188,1.0,3.0,42,0.00,,,0.00,weatherlink.com 1.10,2013-02-13 15:37:00,
2013-02-13 08:52:00,35.1,13.0,30.03,SSE,155,0.0,3.0,40,0.00,,,0.00,weatherlink.com 1.10,2013-02-13 15:52:00,
2013-02-13 09:07:00,39.6,11.0,30.02,WSW,239,4.0,4.0,31,0.00,,,0.00,weatherlink.com 1.10,2013-02-13 16:07:00,
2013-02-13 09:22:00,40.9,13.0,30.01,ESE,108,3.0,3.0,32,0.00,,,0.00,weatherlink.com 1.10,2013-02-13 16:22:00,
2013-02-13 09:37:00,42.2,12.0,30.01,South,181,0.0,3.0,29,0.00,,,0.00,weatherlink.com 1.10,2013-02-13 16:37:00,
2013-02-13 09:52:00,45.5,9.0,30.01,West,263,4.0,10.0,22,0.00,,,0.00,weatherlink.com 1.10,2013-02-13 16:52:00,
2013-02-13 10:07:00,47.3,8.0,30.01,NNE,30,5.0,17.0,20,0.00,,,0.00,weatherlink.com 1.10,2013-02-13 17:07:00,
2013-02-13 10:22:00,45.1,7.0,30.02,WSW,246,5.0,20.0,21,0.00,,,0.00,weatherlink.com 1.10,2013-02-13 17:22:00,
2013-02-13 10:37:00,43.6,8.0,30.04,SW,235,10.0,18.0,23,0.00,,,0.00,weatherlink.com 1.10,2013-02-13 17:37:00,
2013-02-13 10:52:00,42.2,9.0,30.05,West,266,8.0,19.0,25,0.00,,,0.00,weatherlink.com 1.10,2013-02-13 17:52:00,
2013-02-13 11:07:00,41.5,10.0,30.05,WSW,252,6.0,17.0,27,0.00,,,0.00,weatherlink.com 1.10,2013-02-13 18:07:00,
2013-02-13 11:22:00,41.3,10.0,30.05,WNW,287,4.0,18.0,28,0.00,,,0.00,weatherlink.com 1.10,2013-02-13 18:22:00,
2013-02-13 11:37:00,42.0,11.0,30.05,West,276,2.0,8.0,28,0.00,,,0.00,weatherlink.com 1.10,2013-02-13 18:37:00,
2013-02-13 11:52:00,41.8,12.0,30.05,West,276,3.0,12.0,30,0.00,,,0.00,weatherlink.com 1.10,2013-02-13 18:52:00,
2013-02-13 12:07:00,41.7,12.0,30.04,West,270,1.0,16.0,30,0.00,,,0.00,weatherlink.com 1.10,2013-02-13 19:07:00,
2013-02-13 12:22:00,42.6,12.0,30.04,WNW,300,9.0,10.0,29,0.00,,,0.00,weatherlink.com 1.10,2013-02-13 19:22:00,
2013-02-13 12:37:00,42.9,12.0,30.03,WSW,239,6.0,14.0,28,0.00,,,0.00,weatherlink.com 1.10,2013-02-13 19:37:00,
2013-02-13 12:52:00,44.9,13.0,30.03,West,260,13.0,20.0,27,0.00,,,0.00,weatherlink.com 1.10,2013-02-13 19:52:00,
2013-02-13 13:07:00,45.8,12.0,30.04,WSW,256,4.0,18.0,25,0.00,,,0.00,weatherlink.com 1.10,2013-02-13 20:07:00,
2013-02-13 13:22:00,45.7,12.0,30.04,West,273,6.0,16.0,25,0.00,,,0.00,weatherlink.com 1.10,2013-02-13 20:22:00,
2013-02-13 13:37:00,44.7,12.0,30.03,WNW,288,8.0,18.0,26,0.00,,,0.00,weatherlink.com 1.10,2013-02-13 20:37:00,
2013-02-13 13:52:00,43.3,11.0,30.02,WSW,255,14.0,18.0,27,0.00,,,0.00,weatherlink.com 1.10,2013-02-13 20:52:00,
2013-02-13 14:07:00,43.1,12.0,30.01,West,281,12.0,18.0,28,0.00,,,0.00,weatherlink.com 1.10,2013-02-13 21:07:00,
2013-02-13 14:22:00,43.1,13.0,30.01,NW,304,4.0,22.0,29,0.00,,,0.00,weatherlink.com 1.10,2013-02-13 21:22:00,
2013-02-13 14:37:00,43.2,13.0,30.01,West,280,7.0,18.0,29,0.00,,,0.00,weatherlink.com 1.10,2013-02-13 21:37:00,
2013-02-13 14:52:00,43.3,13.0,30.01,WNW,300,3.0,14.0,29,0.00,,,0.00,weatherlink.com 1.10,2013-02-13 21:52:00,
2013-02-13 15:07:00,43.7,13.0,30.00,WNW,290,9.0,15.0,29,0.00,,,0.00,weatherlink.com 1.10,2013-02-13 22:07:00,
2013-02-13 15:22:00,44.0,13.0,30.01,WNW,290,9.0,15.0,29,0.00,,,0.00,weatherlink.com 1.10,2013-02-13 22:22:00,
2013-02-13 15:37:00,43.3,14.0,30.01,WNW,295,3.0,14.0,30,0.00,,,0.00,weatherlink.com 1.10,2013-02-13 22:37:00,
2013-02-13 15:52:00,42.8,14.0,30.01,West,279,5.0,13.0,31,0.00,,,0.00,weatherlink.com 1.10,2013-02-13 22:52:00,
2013-02-13 16:07:00,43.1,13.0,29.99,NW,314,2.0,13.0,30,0.00,,,0.00,weatherlink.com 1.10,2013-02-13 23:07:00,
2013-02-13 16:22:00,44.0,13.0,29.99,WNW,293,2.0,14.0,29,0.00,,,0.00,weatherlink.com 1.10,2013-02-13 23:22:00,
2013-02-13 16:37:00,44.6,13.0,29.99,WSW,242,3.0,11.0,28,0.00,,,0.00,weatherlink.com 1.10,2013-02-13 23:37:00,
2013-02-13 16:52:00,44.9,13.0,29.99,NW,326,4.0,13.0,28,0.00,,,0.00,weatherlink.com 1.10,2013-02-13 23:52:00,
2013-02-13 17:07:00,44.4,12.0,30.00,West,267,3.0,13.0,27,0.00,,,0.00,weatherlink.com 1.10,2013-02-14 00:07:00,
2013-02-13 17:23:00,43.3,13.0,30.00,WSW,238,5.0,14.0,29,0.00,,,0.00,weatherlink.com 1.10,2013-02-14 00:23:00,
2013-02-13 17:38:00,42.4,13.0,30.00,WNW,302,4.0,13.0,30,0.00,,,0.00,weatherlink.com 1.10,2013-02-14 00:38:00,
2013-02-13 17:53:00,41.7,13.0,29.99,WSW,246,7.0,11.0,31,0.00,,,0.00,weatherlink.com 1.10,2013-02-14 00:53:00,
2013-02-13 18:08:00,41.3,13.0,30.00,WNW,301,3.0,13.0,31,0.00,,,0.00,weatherlink.com 1.10,2013-02-14 01:08:00,
2013-02-13 18:23:00,41.2,13.0,30.00,NW,321,10.0,12.0,31,0.00,,,0.00,weatherlink.com 1.10,2013-02-14 01:23:00,
2013-02-13 18:38:00,40.8,12.0,30.01,WNW,288,2.0,10.0,31,0.00,,,0.00,weatherlink.com 1.10,2013-02-14 01:38:00,
2013-02-13 18:53:00,40.3,12.0,30.02,North,354,2.0,8.0,31,0.00,,,0.00,weatherlink.com 1.10,2013-02-14 01:53:00,
2013-02-13 19:08:00,40.3,12.0,30.03,WNW,285,2.0,10.0,31,0.00,,,0.00,weatherlink.com 1.10,2013-02-14 02:08:00,
2013-02-13 19:23:00,40.3,12.0,30.03,West,278,6.0,14.0,31,0.00,,,0.00,weatherlink.com 1.10,2013-02-14 02:23:00,
2013-02-13 19:38:00,39.9,11.0,30.04,WNW,287,5.0,10.0,31,0.00,,,0.00,weatherlink.com 1.10,2013-02-14 02:38:00,
2013-02-13 19:53:00,39.7,11.0,30.04,West,273,0.0,7.0,31,0.00,,,0.00,weatherlink.com 1.10,2013-02-14 02:53:00,
2013-02-13 20:08:00,38.7,11.0,30.04,WNW,291,0.0,2.0,32,0.00,,,0.00,weatherlink.com 1.10,2013-02-14 03:08:00,
2013-02-13 20:23:00,37.1,11.0,30.04,WSW,246,0.0,1.0,34,0.00,,,0.00,weatherlink.com 1.10,2013-02-14 03:23:00,
2013-02-13 20:38:00,36.5,11.0,30.04,West,267,0.0,2.0,35,0.00,,,0.00,weatherlink.com 1.10,2013-02-14 03:38:00,
2013-02-13 20:53:00,35.5,11.0,30.03,West,273,0.0,1.0,36,0.00,,,0.00,weatherlink.com 1.10,2013-02-14 03:53:00,
2013-02-13 21:08:00,34.5,11.0,30.04,NE,49,0.0,1.0,38,0.00,,,0.00,weatherlink.com 1.10,2013-02-14 04:08:00,
2013-02-13 21:23:00,32.9,11.0,30.05,NE,49,0.0,1.0,40,0.00,,,0.00,weatherlink.com 1.10,2013-02-14 04:23:00,
2013-02-13 21:38:00,31.6,11.0,30.05,West,270,0.0,1.0,42,0.00,,,0.00,weatherlink.com 1.10,2013-02-14 04:38:00,
2013-02-13 21:53:00,35.3,12.0,30.05,WSW,255,1.0,4.0,38,0.00,,,0.00,weatherlink.com 1.10,2013-02-14 04:53:00,
2013-02-13 22:23:00,35.2,11.0,30.05,SSW,207,0.0,1.0,37,0.00,,,0.00,weatherlink.com 1.10,2013-02-14 05:23:00,
2013-02-13 22:38:00,33.0,11.0,30.05,SSW,207,0.0,1.0,40,0.00,,,0.00,weatherlink.com 1.10,2013-02-14 05:38:00,
2013-02-13 22:53:00,36.0,11.0,30.04,South,176,0.0,6.0,35,0.00,,,0.00,weatherlink.com 1.10,2013-02-14 05:53:00,
2013-02-13 23:08:00,36.3,11.0,30.05,SW,218,1.0,5.0,35,0.00,,,0.00,weatherlink.com 1.10,2013-02-14 06:08:00,
2013-02-13 23:23:00,35.4,11.0,30.05,West,260,1.0,6.0,37,0.00,,,0.00,weatherlink.com 1.10,2013-02-14 06:23:00,
2013-02-13 23:38:00,35.9,11.0,30.05,NW,321,0.0,3.0,35,0.00,,,0.00,weatherlink.com 1.10,2013-02-14 06:38:00,
2013-02-13 23:53:00,37.1,11.0,30.04,SE,124,1.0,4.0,34,0.00,,,0.00,weatherlink.com 1.10,2013-02-14 06:53:00,